sensor_id;sensor_type;location;lat;lon;timestamp;P1;durP1;ratioP1;P2;durP2;ratioP2
56307;SDS011;42217;50.422;7.210;2022-08-19T00:01:16;14.63;;;9.13;;
56307;SDS011;42217;50.422;7.210;2022-08-19T00:03:41;10.38;;;8.50;;
56307;SDS011;42217;50.422;7.210;2022-08-19T00:06:07;12.10;;;7.60;;
56307;SDS011;42217;50.422;7.210;2022-08-19T00:08:34;14.63;;;8.85;;
56307;SDS011;42217;50.422;7.210;2022-08-19T00:10:59;11.95;;;9.02;;
56307;SDS011;42217;50.422;7.210;2022-08-19T00:13:25;11.38;;;7.45;;
56307;SDS011;42217;50.422;7.210;2022-08-19T00:15:53;11.95;;;7.75;;
56307;SDS011;42217;50.422;7.210;2022-08-19T00:18:20;9.57;;;8.45;;
56307;SDS011;42217;50.422;7.210;2022-08-19T00:20:46;13.18;;;7.70;;
56307;SDS011;42217;50.422;7.210;2022-08-19T00:23:11;9.70;;;8.38;;
56307;SDS011;42217;50.422;7.210;2022-08-19T00:25:37;9.40;;;8.18;;
56307;SDS011;42217;50.422;7.210;2022-08-19T00:28:04;9.55;;;7.85;;
56307;SDS011;42217;50.422;7.210;2022-08-19T00:30:29;9.30;;;7.75;;
56307;SDS011;42217;50.422;7.210;2022-08-19T00:32:55;16.40;;;9.27;;
56307;SDS011;42217;50.422;7.210;2022-08-19T00:35:21;11.27;;;7.63;;
56307;SDS011;42217;50.422;7.210;2022-08-19T00:37:48;9.90;;;8.13;;
56307;SDS011;42217;50.422;7.210;2022-08-19T00:40:14;15.65;;;9.27;;
56307;SDS011;42217;50.422;7.210;2022-08-19T00:42:43;15.90;;;8.48;;
56307;SDS011;42217;50.422;7.210;2022-08-19T00:45:14;11.63;;;8.20;;
56307;SDS011;42217;50.422;7.210;2022-08-19T00:47:46;16.65;;;8.73;;
56307;SDS011;42217;50.422;7.210;2022-08-19T00:50:13;10.88;;;8.80;;
56307;SDS011;42217;50.422;7.210;2022-08-19T00:52:42;12.57;;;9.60;;
56307;SDS011;42217;50.422;7.210;2022-08-19T00:55:12;11.80;;;9.57;;
56307;SDS011;42217;50.422;7.210;2022-08-19T00:57:45;13.00;;;9.73;;
56307;SDS011;42217;50.422;7.210;2022-08-19T01:00:16;14.50;;;10.20;;
56307;SDS011;42217;50.422;7.210;2022-08-19T01:02:44;13.93;;;10.60;;
56307;SDS011;42217;50.422;7.210;2022-08-19T01:05:11;13.88;;;10.00;;
56307;SDS011;42217;50.422;7.210;2022-08-19T01:07:41;12.63;;;10.05;;
56307;SDS011;42217;50.422;7.210;2022-08-19T01:10:08;14.75;;;10.30;;
56307;SDS011;42217;50.422;7.210;2022-08-19T01:12:37;15.48;;;10.77;;
56307;SDS011;42217;50.422;7.210;2022-08-19T01:15:04;18.98;;;11.57;;
56307;SDS011;42217;50.422;7.210;2022-08-19T01:17:32;15.27;;;10.35;;
56307;SDS011;42217;50.422;7.210;2022-08-19T01:20:00;14.68;;;11.65;;
56307;SDS011;42217;50.422;7.210;2022-08-19T01:22:33;12.80;;;10.98;;
56307;SDS011;42217;50.422;7.210;2022-08-19T01:25:08;17.30;;;11.40;;
56307;SDS011;42217;50.422;7.210;2022-08-19T01:27:37;16.50;;;10.48;;
56307;SDS011;42217;50.422;7.210;2022-08-19T01:30:05;12.35;;;9.35;;
56307;SDS011;42217;50.422;7.210;2022-08-19T01:32:32;12.07;;;9.90;;
56307;SDS011;42217;50.422;7.210;2022-08-19T01:34:58;18.60;;;11.38;;
56307;SDS011;42217;50.422;7.210;2022-08-19T01:37:26;15.48;;;10.00;;
56307;SDS011;42217;50.422;7.210;2022-08-19T01:39:52;12.27;;;10.23;;
56307;SDS011;42217;50.422;7.210;2022-08-19T01:42:18;17.65;;;11.07;;
56307;SDS011;42217;50.422;7.210;2022-08-19T01:44:44;17.80;;;11.50;;
56307;SDS011;42217;50.422;7.210;2022-08-19T01:47:10;9.95;;;8.52;;
56307;SDS011;42217;50.422;7.210;2022-08-19T01:49:36;10.82;;;9.05;;
56307;SDS011;42217;50.422;7.210;2022-08-19T01:52:03;10.05;;;8.05;;
56307;SDS011;42217;50.422;7.210;2022-08-19T01:54:29;11.23;;;8.88;;
56307;SDS011;42217;50.422;7.210;2022-08-19T01:57:07;15.40;;;9.07;;
56307;SDS011;42217;50.422;7.210;2022-08-19T01:59:36;11.40;;;10.02;;
56307;SDS011;42217;50.422;7.210;2022-08-19T02:02:02;10.70;;;9.27;;
56307;SDS011;42217;50.422;7.210;2022-08-19T02:04:32;13.85;;;10.27;;
56307;SDS011;42217;50.422;7.210;2022-08-19T02:06:58;9.65;;;8.60;;
56307;SDS011;42217;50.422;7.210;2022-08-19T02:09:24;12.90;;;9.90;;
56307;SDS011;42217;50.422;7.210;2022-08-19T02:11:50;15.38;;;10.77;;
56307;SDS011;42217;50.422;7.210;2022-08-19T02:14:16;12.00;;;10.13;;
56307;SDS011;42217;50.422;7.210;2022-08-19T02:16:41;19.55;;;10.30;;
56307;SDS011;42217;50.422;7.210;2022-08-19T02:19:07;12.25;;;9.45;;
56307;SDS011;42217;50.422;7.210;2022-08-19T02:21:33;13.55;;;11.75;;
56307;SDS011;42217;50.422;7.210;2022-08-19T02:23:59;14.18;;;10.07;;
56307;SDS011;42217;50.422;7.210;2022-08-19T02:26:25;14.55;;;11.02;;
56307;SDS011;42217;50.422;7.210;2022-08-19T02:28:52;13.35;;;11.35;;
56307;SDS011;42217;50.422;7.210;2022-08-19T02:31:19;16.13;;;12.88;;
56307;SDS011;42217;50.422;7.210;2022-08-19T02:33:47;19.98;;;13.90;;
56307;SDS011;42217;50.422;7.210;2022-08-19T02:36:14;15.77;;;12.80;;
56307;SDS011;42217;50.422;7.210;2022-08-19T02:38:41;15.90;;;13.27;;
56307;SDS011;42217;50.422;7.210;2022-08-19T02:41:19;19.48;;;14.90;;
56307;SDS011;42217;50.422;7.210;2022-08-19T02:43:47;19.33;;;14.50;;
56307;SDS011;42217;50.422;7.210;2022-08-19T02:46:23;16.50;;;13.75;;
56307;SDS011;42217;50.422;7.210;2022-08-19T02:48:52;18.48;;;13.40;;
56307;SDS011;42217;50.422;7.210;2022-08-19T02:51:24;18.73;;;12.68;;
56307;SDS011;42217;50.422;7.210;2022-08-19T02:53:51;17.67;;;13.45;;
56307;SDS011;42217;50.422;7.210;2022-08-19T02:56:18;17.77;;;13.13;;
56307;SDS011;42217;50.422;7.210;2022-08-19T02:58:45;18.77;;;12.27;;
56307;SDS011;42217;50.422;7.210;2022-08-19T03:01:18;20.58;;;14.70;;
56307;SDS011;42217;50.422;7.210;2022-08-19T03:03:58;18.08;;;12.85;;
56307;SDS011;42217;50.422;7.210;2022-08-19T03:06:25;18.55;;;14.55;;
56307;SDS011;42217;50.422;7.210;2022-08-19T03:08:52;27.38;;;16.08;;
56307;SDS011;42217;50.422;7.210;2022-08-19T03:11:25;19.73;;;15.02;;
56307;SDS011;42217;50.422;7.210;2022-08-19T03:13:55;17.50;;;14.88;;
56307;SDS011;42217;50.422;7.210;2022-08-19T03:16:21;21.92;;;14.90;;
56307;SDS011;42217;50.422;7.210;2022-08-19T03:18:49;20.27;;;14.88;;
56307;SDS011;42217;50.422;7.210;2022-08-19T03:21:21;19.13;;;15.02;;
56307;SDS011;42217;50.422;7.210;2022-08-19T03:23:55;23.20;;;14.75;;
56307;SDS011;42217;50.422;7.210;2022-08-19T03:26:22;18.15;;;14.15;;
56307;SDS011;42217;50.422;7.210;2022-08-19T03:28:47;19.92;;;14.20;;
56307;SDS011;42217;50.422;7.210;2022-08-19T03:31:16;25.45;;;15.38;;
56307;SDS011;42217;50.422;7.210;2022-08-19T03:33:44;18.83;;;14.05;;
56307;SDS011;42217;50.422;7.210;2022-08-19T03:36:11;19.58;;;14.57;;
56307;SDS011;42217;50.422;7.210;2022-08-19T03:38:43;22.08;;;16.27;;
56307;SDS011;42217;50.422;7.210;2022-08-19T03:41:14;23.98;;;15.95;;
56307;SDS011;42217;50.422;7.210;2022-08-19T03:43:42;21.83;;;15.65;;
56307;SDS011;42217;50.422;7.210;2022-08-19T03:46:09;20.00;;;14.75;;
56307;SDS011;42217;50.422;7.210;2022-08-19T03:48:37;19.60;;;14.20;;
56307;SDS011;42217;50.422;7.210;2022-08-19T03:51:05;27.23;;;16.45;;
56307;SDS011;42217;50.422;7.210;2022-08-19T03:53:32;20.55;;;14.82;;
56307;SDS011;42217;50.422;7.210;2022-08-19T03:55:59;22.08;;;14.32;;
56307;SDS011;42217;50.422;7.210;2022-08-19T03:58:26;26.75;;;15.13;;
56307;SDS011;42217;50.422;7.210;2022-08-19T04:00:54;20.23;;;14.48;;
56307;SDS011;42217;50.422;7.210;2022-08-19T04:03:22;24.05;;;15.85;;
56307;SDS011;42217;50.422;7.210;2022-08-19T04:05:49;22.35;;;15.73;;
56307;SDS011;42217;50.422;7.210;2022-08-19T04:08:15;19.15;;;14.07;;
56307;SDS011;42217;50.422;7.210;2022-08-19T04:10:46;22.02;;;15.15;;
56307;SDS011;42217;50.422;7.210;2022-08-19T04:13:13;24.70;;;17.10;;
56307;SDS011;42217;50.422;7.210;2022-08-19T04:15:41;21.98;;;16.08;;
56307;SDS011;42217;50.422;7.210;2022-08-19T04:18:08;24.77;;;16.75;;
56307;SDS011;42217;50.422;7.210;2022-08-19T04:20:45;22.08;;;15.52;;
56307;SDS011;42217;50.422;7.210;2022-08-19T04:23:13;23.83;;;16.48;;
56307;SDS011;42217;50.422;7.210;2022-08-19T04:25:40;23.67;;;16.13;;
56307;SDS011;42217;50.422;7.210;2022-08-19T04:28:08;20.50;;;16.65;;
56307;SDS011;42217;50.422;7.210;2022-08-19T04:30:39;23.35;;;18.50;;
56307;SDS011;42217;50.422;7.210;2022-08-19T04:33:10;26.42;;;17.30;;
56307;SDS011;42217;50.422;7.210;2022-08-19T04:35:41;25.80;;;17.08;;
56307;SDS011;42217;50.422;7.210;2022-08-19T04:38:12;26.33;;;16.48;;
56307;SDS011;42217;50.422;7.210;2022-08-19T04:40:39;20.73;;;15.93;;
56307;SDS011;42217;50.422;7.210;2022-08-19T04:43:25;24.70;;;16.52;;
56307;SDS011;42217;50.422;7.210;2022-08-19T04:45:50;25.23;;;16.27;;
56307;SDS011;42217;50.422;7.210;2022-08-19T04:48:16;22.83;;;14.32;;
56307;SDS011;42217;50.422;7.210;2022-08-19T04:50:44;26.15;;;14.52;;
56307;SDS011;42217;50.422;7.210;2022-08-19T04:53:10;21.17;;;13.90;;
56307;SDS011;42217;50.422;7.210;2022-08-19T04:55:40;21.05;;;14.63;;
56307;SDS011;42217;50.422;7.210;2022-08-19T04:58:06;18.42;;;15.02;;
56307;SDS011;42217;50.422;7.210;2022-08-19T05:00:32;18.40;;;14.57;;
56307;SDS011;42217;50.422;7.210;2022-08-19T05:02:58;16.30;;;13.00;;
56307;SDS011;42217;50.422;7.210;2022-08-19T05:05:23;24.50;;;14.25;;
56307;SDS011;42217;50.422;7.210;2022-08-19T05:07:49;19.45;;;13.90;;
56307;SDS011;42217;50.422;7.210;2022-08-19T05:10:15;17.63;;;12.52;;
56307;SDS011;42217;50.422;7.210;2022-08-19T05:12:41;18.60;;;12.85;;
56307;SDS011;42217;50.422;7.210;2022-08-19T05:15:07;15.55;;;12.75;;
56307;SDS011;42217;50.422;7.210;2022-08-19T05:17:36;14.88;;;11.23;;
56307;SDS011;42217;50.422;7.210;2022-08-19T05:20:03;15.30;;;12.05;;
56307;SDS011;42217;50.422;7.210;2022-08-19T05:22:48;16.42;;;11.60;;
56307;SDS011;42217;50.422;7.210;2022-08-19T05:25:17;11.75;;;10.60;;
56307;SDS011;42217;50.422;7.210;2022-08-19T05:27:45;32.17;;;18.05;;
56307;SDS011;42217;50.422;7.210;2022-08-19T05:30:12;22.25;;;17.85;;
56307;SDS011;42217;50.422;7.210;2022-08-19T05:32:38;26.00;;;19.20;;
56307;SDS011;42217;50.422;7.210;2022-08-19T05:35:04;24.40;;;19.50;;
56307;SDS011;42217;50.422;7.210;2022-08-19T05:37:30;27.50;;;21.27;;
56307;SDS011;42217;50.422;7.210;2022-08-19T05:39:56;28.73;;;20.00;;
56307;SDS011;42217;50.422;7.210;2022-08-19T05:42:22;23.88;;;18.67;;
56307;SDS011;42217;50.422;7.210;2022-08-19T05:44:48;28.38;;;19.33;;
56307;SDS011;42217;50.422;7.210;2022-08-19T05:47:15;30.33;;;20.67;;
56307;SDS011;42217;50.422;7.210;2022-08-19T05:49:41;24.83;;;19.15;;
56307;SDS011;42217;50.422;7.210;2022-08-19T05:52:11;26.83;;;20.60;;
56307;SDS011;42217;50.422;7.210;2022-08-19T05:54:40;23.77;;;20.75;;
56307;SDS011;42217;50.422;7.210;2022-08-19T05:57:06;24.05;;;19.77;;
56307;SDS011;42217;50.422;7.210;2022-08-19T05:59:33;26.85;;;20.60;;
56307;SDS011;42217;50.422;7.210;2022-08-19T06:02:00;23.15;;;20.20;;
56307;SDS011;42217;50.422;7.210;2022-08-19T06:04:27;25.50;;;19.25;;
56307;SDS011;42217;50.422;7.210;2022-08-19T06:06:53;24.10;;;18.98;;
56307;SDS011;42217;50.422;7.210;2022-08-19T06:09:21;25.50;;;17.83;;
56307;SDS011;42217;50.422;7.210;2022-08-19T06:11:48;25.20;;;18.65;;
56307;SDS011;42217;50.422;7.210;2022-08-19T06:14:19;26.25;;;20.50;;
56307;SDS011;42217;50.422;7.210;2022-08-19T06:16:47;32.70;;;22.63;;
56307;SDS011;42217;50.422;7.210;2022-08-19T06:19:14;31.48;;;21.83;;
56307;SDS011;42217;50.422;7.210;2022-08-19T06:21:41;28.65;;;20.92;;
56307;SDS011;42217;50.422;7.210;2022-08-19T06:24:09;24.13;;;19.13;;
56307;SDS011;42217;50.422;7.210;2022-08-19T06:26:38;23.90;;;18.10;;
56307;SDS011;42217;50.422;7.210;2022-08-19T06:29:07;19.50;;;16.80;;
56307;SDS011;42217;50.422;7.210;2022-08-19T06:31:34;25.65;;;19.27;;
56307;SDS011;42217;50.422;7.210;2022-08-19T06:34:02;23.63;;;19.42;;
56307;SDS011;42217;50.422;7.210;2022-08-19T06:36:31;22.77;;;18.13;;
56307;SDS011;42217;50.422;7.210;2022-08-19T06:39:10;26.55;;;18.40;;
56307;SDS011;42217;50.422;7.210;2022-08-19T06:41:38;24.50;;;17.65;;
56307;SDS011;42217;50.422;7.210;2022-08-19T06:44:08;26.75;;;19.55;;
56307;SDS011;42217;50.422;7.210;2022-08-19T06:46:34;24.23;;;18.38;;
56307;SDS011;42217;50.422;7.210;2022-08-19T06:49:01;32.03;;;22.25;;
56307;SDS011;42217;50.422;7.210;2022-08-19T06:51:28;27.38;;;21.48;;
56307;SDS011;42217;50.422;7.210;2022-08-19T06:53:54;25.23;;;20.35;;
56307;SDS011;42217;50.422;7.210;2022-08-19T06:56:25;31.55;;;24.73;;
56307;SDS011;42217;50.422;7.210;2022-08-19T06:58:59;34.42;;;24.17;;
56307;SDS011;42217;50.422;7.210;2022-08-19T07:01:26;32.88;;;23.45;;
56307;SDS011;42217;50.422;7.210;2022-08-19T07:03:52;32.10;;;22.27;;
56307;SDS011;42217;50.422;7.210;2022-08-19T07:06:18;26.48;;;21.33;;
56307;SDS011;42217;50.422;7.210;2022-08-19T07:08:45;32.10;;;22.20;;
56307;SDS011;42217;50.422;7.210;2022-08-19T07:11:15;29.67;;;20.83;;
56307;SDS011;42217;50.422;7.210;2022-08-19T07:13:42;26.90;;;20.15;;
56307;SDS011;42217;50.422;7.210;2022-08-19T07:16:11;27.42;;;19.65;;
56307;SDS011;42217;50.422;7.210;2022-08-19T07:18:39;25.27;;;19.20;;
56307;SDS011;42217;50.422;7.210;2022-08-19T07:21:09;27.33;;;18.05;;
56307;SDS011;42217;50.422;7.210;2022-08-19T07:23:36;22.90;;;18.38;;
56307;SDS011;42217;50.422;7.210;2022-08-19T07:26:10;26.90;;;18.02;;
56307;SDS011;42217;50.422;7.210;2022-08-19T07:28:38;28.77;;;17.25;;
56307;SDS011;42217;50.422;7.210;2022-08-19T07:31:07;24.83;;;15.52;;
56307;SDS011;42217;50.422;7.210;2022-08-19T07:33:35;23.98;;;16.30;;
56307;SDS011;42217;50.422;7.210;2022-08-19T07:36:04;22.95;;;16.35;;
56307;SDS011;42217;50.422;7.210;2022-08-19T07:38:32;21.08;;;14.55;;
56307;SDS011;42217;50.422;7.210;2022-08-19T07:40:58;19.80;;;13.95;;
56307;SDS011;42217;50.422;7.210;2022-08-19T07:43:24;20.25;;;15.02;;
56307;SDS011;42217;50.422;7.210;2022-08-19T07:45:52;20.52;;;15.73;;
56307;SDS011;42217;50.422;7.210;2022-08-19T07:48:21;20.42;;;14.00;;
56307;SDS011;42217;50.422;7.210;2022-08-19T07:50:57;22.20;;;14.40;;
56307;SDS011;42217;50.422;7.210;2022-08-19T07:53:27;16.75;;;12.10;;
56307;SDS011;42217;50.422;7.210;2022-08-19T07:55:54;16.95;;;11.45;;
56307;SDS011;42217;50.422;7.210;2022-08-19T07:58:21;16.40;;;9.52;;
56307;SDS011;42217;50.422;7.210;2022-08-19T08:00:48;14.52;;;10.18;;
56307;SDS011;42217;50.422;7.210;2022-08-19T08:03:16;16.20;;;11.23;;
56307;SDS011;42217;50.422;7.210;2022-08-19T08:05:44;12.95;;;10.65;;
56307;SDS011;42217;50.422;7.210;2022-08-19T08:08:29;21.23;;;11.32;;
56307;SDS011;42217;50.422;7.210;2022-08-19T08:11:05;14.23;;;9.60;;
56307;SDS011;42217;50.422;7.210;2022-08-19T08:13:31;13.75;;;9.07;;
56307;SDS011;42217;50.422;7.210;2022-08-19T08:16:00;13.60;;;10.05;;
56307;SDS011;42217;50.422;7.210;2022-08-19T08:18:27;14.18;;;8.82;;
56307;SDS011;42217;50.422;7.210;2022-08-19T08:20:53;10.90;;;7.65;;
56307;SDS011;42217;50.422;7.210;2022-08-19T08:23:19;13.15;;;8.98;;
56307;SDS011;42217;50.422;7.210;2022-08-19T08:25:50;9.05;;;7.35;;
56307;SDS011;42217;50.422;7.210;2022-08-19T08:28:21;7.93;;;6.15;;
56307;SDS011;42217;50.422;7.210;2022-08-19T08:30:48;11.93;;;7.82;;
56307;SDS011;42217;50.422;7.210;2022-08-19T08:33:22;11.93;;;7.90;;
56307;SDS011;42217;50.422;7.210;2022-08-19T08:35:48;12.88;;;8.27;;
56307;SDS011;42217;50.422;7.210;2022-08-19T08:38:14;10.30;;;7.03;;
56307;SDS011;42217;50.422;7.210;2022-08-19T08:46:04;12.40;;;7.20;;
56307;SDS011;42217;50.422;7.210;2022-08-19T08:51:12;12.35;;;8.25;;
56307;SDS011;42217;50.422;7.210;2022-08-19T08:53:43;14.95;;;8.23;;
56307;SDS011;42217;50.422;7.210;2022-08-19T08:56:11;11.40;;;8.60;;
56307;SDS011;42217;50.422;7.210;2022-08-19T09:01:33;9.65;;;6.57;;
56307;SDS011;42217;50.422;7.210;2022-08-19T09:03:59;18.65;;;10.88;;
56307;SDS011;42217;50.422;7.210;2022-08-19T09:14:43;19.45;;;11.85;;
56307;SDS011;42217;50.422;7.210;2022-08-19T09:17:16;20.60;;;13.43;;
56307;SDS011;42217;50.422;7.210;2022-08-19T09:19:50;15.18;;;12.73;;
56307;SDS011;42217;50.422;7.210;2022-08-19T09:22:20;18.15;;;12.85;;
56307;SDS011;42217;50.422;7.210;2022-08-19T09:24:50;22.67;;;14.95;;
56307;SDS011;42217;50.422;7.210;2022-08-19T09:27:17;22.52;;;12.35;;
56307;SDS011;42217;50.422;7.210;2022-08-19T09:29:48;22.63;;;16.40;;
56307;SDS011;42217;50.422;7.210;2022-08-19T09:32:15;23.30;;;16.88;;
56307;SDS011;42217;50.422;7.210;2022-08-19T09:34:42;26.73;;;20.10;;
56307;SDS011;42217;50.422;7.210;2022-08-19T09:37:08;28.98;;;18.88;;
56307;SDS011;42217;50.422;7.210;2022-08-19T09:39:34;24.67;;;16.42;;
56307;SDS011;42217;50.422;7.210;2022-08-19T09:41:59;26.52;;;18.33;;
56307;SDS011;42217;50.422;7.210;2022-08-19T09:44:25;28.55;;;17.25;;
56307;SDS011;42217;50.422;7.210;2022-08-19T09:46:51;29.48;;;18.02;;
56307;SDS011;42217;50.422;7.210;2022-08-19T09:49:17;25.48;;;18.15;;
56307;SDS011;42217;50.422;7.210;2022-08-19T09:51:44;25.25;;;19.38;;
56307;SDS011;42217;50.422;7.210;2022-08-19T09:54:14;22.48;;;16.80;;
56307;SDS011;42217;50.422;7.210;2022-08-19T09:56:40;23.05;;;17.33;;
56307;SDS011;42217;50.422;7.210;2022-08-19T09:59:05;25.60;;;17.83;;
56307;SDS011;42217;50.422;7.210;2022-08-19T10:01:31;22.38;;;16.50;;
56307;SDS011;42217;50.422;7.210;2022-08-19T10:03:58;23.52;;;15.55;;
56307;SDS011;42217;50.422;7.210;2022-08-19T10:06:25;24.95;;;16.98;;
56307;SDS011;42217;50.422;7.210;2022-08-19T10:08:54;27.80;;;20.30;;
56307;SDS011;42217;50.422;7.210;2022-08-19T10:11:20;22.30;;;17.80;;
56307;SDS011;42217;50.422;7.210;2022-08-19T10:13:46;35.38;;;21.92;;
56307;SDS011;42217;50.422;7.210;2022-08-19T10:16:15;21.10;;;15.52;;
56307;SDS011;42217;50.422;7.210;2022-08-19T10:18:44;19.05;;;14.00;;
56307;SDS011;42217;50.422;7.210;2022-08-19T10:21:21;27.40;;;18.20;;
56307;SDS011;42217;50.422;7.210;2022-08-19T10:23:50;27.55;;;17.38;;
56307;SDS011;42217;50.422;7.210;2022-08-19T10:26:25;25.80;;;17.10;;
56307;SDS011;42217;50.422;7.210;2022-08-19T10:28:52;24.65;;;17.20;;
56307;SDS011;42217;50.422;7.210;2022-08-19T10:31:20;23.40;;;16.27;;
56307;SDS011;42217;50.422;7.210;2022-08-19T10:33:48;23.83;;;15.85;;
56307;SDS011;42217;50.422;7.210;2022-08-19T10:36:16;23.73;;;15.18;;
56307;SDS011;42217;50.422;7.210;2022-08-19T10:38:48;16.25;;;13.50;;
56307;SDS011;42217;50.422;7.210;2022-08-19T10:41:19;21.90;;;13.85;;
56307;SDS011;42217;50.422;7.210;2022-08-19T10:43:50;23.58;;;16.05;;
56307;SDS011;42217;50.422;7.210;2022-08-19T10:46:19;17.05;;;13.43;;
56307;SDS011;42217;50.422;7.210;2022-08-19T10:48:47;19.15;;;14.73;;
56307;SDS011;42217;50.422;7.210;2022-08-19T10:51:13;21.98;;;14.82;;
56307;SDS011;42217;50.422;7.210;2022-08-19T10:53:57;23.75;;;18.67;;
56307;SDS011;42217;50.422;7.210;2022-08-19T10:56:25;24.05;;;17.80;;
56307;SDS011;42217;50.422;7.210;2022-08-19T10:59:10;19.92;;;16.38;;
56307;SDS011;42217;50.422;7.210;2022-08-19T11:01:38;21.20;;;15.88;;
56307;SDS011;42217;50.422;7.210;2022-08-19T11:04:06;20.35;;;13.13;;
56307;SDS011;42217;50.422;7.210;2022-08-19T11:06:35;23.38;;;15.45;;
56307;SDS011;42217;50.422;7.210;2022-08-19T11:09:03;19.27;;;14.45;;
56307;SDS011;42217;50.422;7.210;2022-08-19T11:11:30;14.95;;;11.43;;
56307;SDS011;42217;50.422;7.210;2022-08-19T11:13:57;14.30;;;9.40;;
56307;SDS011;42217;50.422;7.210;2022-08-19T11:16:24;11.77;;;9.45;;
56307;SDS011;42217;50.422;7.210;2022-08-19T11:18:56;15.73;;;10.73;;
56307;SDS011;42217;50.422;7.210;2022-08-19T11:21:25;13.75;;;9.40;;
56307;SDS011;42217;50.422;7.210;2022-08-19T11:23:54;15.73;;;11.27;;
56307;SDS011;42217;50.422;7.210;2022-08-19T11:26:22;15.15;;;11.48;;
56307;SDS011;42217;50.422;7.210;2022-08-19T11:28:49;14.07;;;9.75;;
56307;SDS011;42217;50.422;7.210;2022-08-19T11:31:20;13.75;;;9.68;;
56307;SDS011;42217;50.422;7.210;2022-08-19T11:33:49;20.38;;;11.75;;
56307;SDS011;42217;50.422;7.210;2022-08-19T11:36:19;17.08;;;11.60;;
56307;SDS011;42217;50.422;7.210;2022-08-19T11:38:46;12.68;;;10.38;;
56307;SDS011;42217;50.422;7.210;2022-08-19T11:41:14;11.10;;;9.85;;
56307;SDS011;42217;50.422;7.210;2022-08-19T11:43:41;14.10;;;11.15;;
56307;SDS011;42217;50.422;7.210;2022-08-19T11:46:07;12.40;;;8.40;;
56307;SDS011;42217;50.422;7.210;2022-08-19T11:48:35;12.00;;;8.30;;
56307;SDS011;42217;50.422;7.210;2022-08-19T11:51:08;13.00;;;10.73;;
56307;SDS011;42217;50.422;7.210;2022-08-19T11:53:40;14.07;;;9.90;;
56307;SDS011;42217;50.422;7.210;2022-08-19T11:56:07;11.73;;;10.18;;
56307;SDS011;42217;50.422;7.210;2022-08-19T11:58:33;12.30;;;8.77;;
56307;SDS011;42217;50.422;7.210;2022-08-19T12:00:59;29.77;;;10.75;;
56307;SDS011;42217;50.422;7.210;2022-08-19T12:03:25;26.23;;;12.10;;
56307;SDS011;42217;50.422;7.210;2022-08-19T12:05:51;14.20;;;9.43;;
56307;SDS011;42217;50.422;7.210;2022-08-19T12:08:17;13.75;;;8.65;;
56307;SDS011;42217;50.422;7.210;2022-08-19T12:10:44;12.38;;;7.70;;
56307;SDS011;42217;50.422;7.210;2022-08-19T12:13:13;11.32;;;7.07;;
56307;SDS011;42217;50.422;7.210;2022-08-19T12:15:40;37.30;;;10.75;;
56307;SDS011;42217;50.422;7.210;2022-08-19T12:18:07;31.73;;;9.18;;
56307;SDS011;42217;50.422;7.210;2022-08-19T12:20:35;12.80;;;6.82;;
56307;SDS011;42217;50.422;7.210;2022-08-19T12:23:02;16.85;;;7.57;;
56307;SDS011;42217;50.422;7.210;2022-08-19T12:25:29;9.68;;;7.63;;
56307;SDS011;42217;50.422;7.210;2022-08-19T12:27:55;11.15;;;6.90;;
56307;SDS011;42217;50.422;7.210;2022-08-19T12:30:22;12.43;;;10.20;;
56307;SDS011;42217;50.422;7.210;2022-08-19T12:32:47;9.88;;;8.23;;
56307;SDS011;42217;50.422;7.210;2022-08-19T12:35:13;11.13;;;7.85;;
56307;SDS011;42217;50.422;7.210;2022-08-19T12:37:39;12.57;;;8.18;;
56307;SDS011;42217;50.422;7.210;2022-08-19T12:40:07;17.92;;;7.88;;
56307;SDS011;42217;50.422;7.210;2022-08-19T12:42:33;13.98;;;8.75;;
56307;SDS011;42217;50.422;7.210;2022-08-19T12:44:59;8.65;;;7.78;;
56307;SDS011;42217;50.422;7.210;2022-08-19T12:47:25;9.35;;;6.65;;
56307;SDS011;42217;50.422;7.210;2022-08-19T12:49:51;17.33;;;9.00;;
56307;SDS011;42217;50.422;7.210;2022-08-19T12:52:17;9.00;;;7.68;;
56307;SDS011;42217;50.422;7.210;2022-08-19T12:54:45;9.30;;;6.38;;
56307;SDS011;42217;50.422;7.210;2022-08-19T12:57:11;9.95;;;7.97;;
56307;SDS011;42217;50.422;7.210;2022-08-19T12:59:38;8.75;;;7.18;;
56307;SDS011;42217;50.422;7.210;2022-08-19T13:02:04;13.75;;;7.15;;
56307;SDS011;42217;50.422;7.210;2022-08-19T13:04:32;14.63;;;9.52;;
56307;SDS011;42217;50.422;7.210;2022-08-19T13:07:05;10.30;;;8.32;;
56307;SDS011;42217;50.422;7.210;2022-08-19T13:09:33;13.35;;;8.95;;
56307;SDS011;42217;50.422;7.210;2022-08-19T13:11:58;12.43;;;8.15;;
56307;SDS011;42217;50.422;7.210;2022-08-19T13:14:25;10.50;;;7.63;;
56307;SDS011;42217;50.422;7.210;2022-08-19T13:16:51;13.13;;;8.13;;
56307;SDS011;42217;50.422;7.210;2022-08-19T13:19:17;13.77;;;8.15;;
56307;SDS011;42217;50.422;7.210;2022-08-19T13:21:45;12.43;;;8.63;;
56307;SDS011;42217;50.422;7.210;2022-08-19T13:24:15;9.60;;;8.60;;
56307;SDS011;42217;50.422;7.210;2022-08-19T13:26:40;10.93;;;8.38;;
56307;SDS011;42217;50.422;7.210;2022-08-19T13:29:06;13.32;;;8.40;;
56307;SDS011;42217;50.422;7.210;2022-08-19T13:31:50;10.05;;;8.35;;
56307;SDS011;42217;50.422;7.210;2022-08-19T13:34:34;11.43;;;7.43;;
56307;SDS011;42217;50.422;7.210;2022-08-19T13:37:02;11.23;;;7.35;;
56307;SDS011;42217;50.422;7.210;2022-08-19T13:39:29;9.02;;;7.88;;
56307;SDS011;42217;50.422;7.210;2022-08-19T13:41:57;12.52;;;9.13;;
56307;SDS011;42217;50.422;7.210;2022-08-19T13:44:25;12.50;;;9.73;;
56307;SDS011;42217;50.422;7.210;2022-08-19T13:46:54;13.50;;;10.50;;
56307;SDS011;42217;50.422;7.210;2022-08-19T13:49:27;10.85;;;9.75;;
56307;SDS011;42217;50.422;7.210;2022-08-19T13:51:56;12.20;;;10.25;;
56307;SDS011;42217;50.422;7.210;2022-08-19T13:54:22;12.35;;;9.52;;
56307;SDS011;42217;50.422;7.210;2022-08-19T13:56:47;14.95;;;10.25;;
56307;SDS011;42217;50.422;7.210;2022-08-19T13:59:13;12.40;;;10.60;;
56307;SDS011;42217;50.422;7.210;2022-08-19T14:01:39;13.82;;;10.82;;
56307;SDS011;42217;50.422;7.210;2022-08-19T14:04:06;12.40;;;10.07;;
56307;SDS011;42217;50.422;7.210;2022-08-19T14:06:32;17.02;;;9.82;;
56307;SDS011;42217;50.422;7.210;2022-08-19T14:08:59;11.13;;;9.82;;
56307;SDS011;42217;50.422;7.210;2022-08-19T14:11:26;12.43;;;10.68;;
56307;SDS011;42217;50.422;7.210;2022-08-19T14:13:53;23.05;;;11.15;;
56307;SDS011;42217;50.422;7.210;2022-08-19T14:16:21;13.57;;;9.73;;
56307;SDS011;42217;50.422;7.210;2022-08-19T14:18:48;12.75;;;9.82;;
56307;SDS011;42217;50.422;7.210;2022-08-19T14:21:19;11.43;;;9.45;;
56307;SDS011;42217;50.422;7.210;2022-08-19T14:23:48;16.73;;;9.55;;
56307;SDS011;42217;50.422;7.210;2022-08-19T14:26:15;12.52;;;9.90;;
56307;SDS011;42217;50.422;7.210;2022-08-19T14:28:43;13.63;;;9.70;;
56307;SDS011;42217;50.422;7.210;2022-08-19T14:31:10;10.23;;;7.82;;
56307;SDS011;42217;50.422;7.210;2022-08-19T14:33:37;15.82;;;9.25;;
56307;SDS011;42217;50.422;7.210;2022-08-19T14:36:04;10.85;;;7.40;;
56307;SDS011;42217;50.422;7.210;2022-08-19T14:38:30;8.40;;;7.20;;
56307;SDS011;42217;50.422;7.210;2022-08-19T14:41:05;11.18;;;7.00;;
56307;SDS011;42217;50.422;7.210;2022-08-19T14:43:50;11.45;;;6.97;;
56307;SDS011;42217;50.422;7.210;2022-08-19T14:46:18;10.48;;;6.50;;
56307;SDS011;42217;50.422;7.210;2022-08-19T14:48:46;9.05;;;5.57;;
56307;SDS011;42217;50.422;7.210;2022-08-19T14:51:12;6.43;;;5.53;;